Time;durP1;ratioP1;P1;durP2;ratioP2;P2;SDS_P1;SDS_P2;PMS_P1;PMS_P2;Temp;Humidity;BMP_temperature;BMP_pressure;BME280_temperature;BME280_humidity;BME280_pressure;Samples;Min_cycle;Max_cycle;Signal;HPM_P1;HPM_P2
2023/01/06 00:00:45;;;;;;;5.17;4.65;;;;;;;6.77;76.60;93928.38;1752710;79;21001;-46
2023/01/06 00:03:11;;;;;;;3.90;3.60;;;;;;;6.77;76.21;93924.27;1771404;79;21219;-46
2023/01/06 00:05:38;;;;;;;4.55;4.15;;;;;;;6.77;75.94;93933.84;1777188;79;21005;-47
2023/01/06 00:08:05;;;;;;;12.23;8.60;;;;;;;6.73;76.08;93938.67;1767479;80;21049;-46
2023/01/06 00:10:33;;;;;;;12.80;8.78;;;;;;;6.60;76.48;93936.56;1782925;80;21021;-47
2023/01/06 00:12:59;;;;;;;12.73;7.83;;;;;;;6.45;76.91;93943.11;1777680;79;21008;-47
2023/01/06 00:15:27;;;;;;;12.13;8.43;;;;;;;6.33;77.39;93936.30;1778070;80;21485;-47
2023/01/06 00:17:54;;;;;;;16.93;11.38;;;;;;;6.23;77.62;93951.83;1781943;79;21032;-48
2023/01/06 00:20:21;;;;;;;17.90;10.72;;;;;;;6.17;78.03;93948.72;1773977;79;21041;-47
2023/01/06 00:22:47;;;;;;;15.43;9.65;;;;;;;6.11;78.48;93951.81;1771520;80;20985;-47
2023/01/06 00:25:14;;;;;;;12.05;8.38;;;;;;;6.12;78.71;93952.00;1774444;79;20977;-46
2023/01/06 00:27:42;;;;;;;9.78;7.20;;;;;;;6.10;79.08;93956.52;1770678;80;21143;-46
2023/01/06 00:30:11;;;;;;;13.22;9.50;;;;;;;6.06;79.46;93959.97;1761996;80;21072;-46
2023/01/06 00:32:38;;;;;;;15.45;10.23;;;;;;;6.04;80.00;93965.11;1766621;80;20993;-46
2023/01/06 00:35:06;;;;;;;18.30;11.68;;;;;;;6.04;80.37;93971.16;1771559;80;21319;-45
2023/01/06 00:37:32;;;;;;;23.00;12.95;;;;;;;6.05;80.65;93979.50;1769437;80;20994;-46
2023/01/06 00:39:59;;;;;;;23.27;13.38;;;;;;;6.04;80.54;93985.58;1767210;80;21198;-46
2023/01/06 00:42:26;;;;;;;20.40;12.23;;;;;;;6.03;81.08;93984.64;1779389;80;21009;-46
2023/01/06 00:44:53;;;;;;;24.25;13.25;;;;;;;6.03;81.03;93991.47;1786536;80;20989;-48
2023/01/06 00:47:20;;;;;;;22.02;12.58;;;;;;;5.99;81.05;93999.00;1727744;80;21013;-62
2023/01/06 00:49:47;;;;;;;13.80;9.90;;;;;;;5.94;81.44;93996.82;1754436;80;21099;-46
2023/01/06 00:52:14;;;;;;;16.10;10.38;;;;;;;5.89;81.51;94015.86;1749513;80;21163;-47
2023/01/06 00:54:42;;;;;;;12.03;8.38;;;;;;;5.83;81.63;94012.73;1775850;80;21539;-46
2023/01/06 00:57:09;;;;;;;15.58;8.83;;;;;;;5.79;81.76;94007.37;1775042;79;21022;-46
2023/01/06 00:59:37;;;;;;;14.10;9.55;;;;;;;5.81;81.83;94015.88;1754450;80;21071;-47
2023/01/06 01:02:04;;;;;;;9.13;7.72;;;;;;;5.80;81.67;94021.80;1753767;80;21572;-46
2023/01/06 01:04:31;;;;;;;9.65;7.22;;;;;;;5.78;81.81;94026.31;1773958;80;21226;-46
2023/01/06 01:06:59;;;;;;;9.75;6.58;;;;;;;5.77;81.70;94032.19;1770489;80;21013;-47
2023/01/06 01:09:29;;;;;;;5.05;4.55;;;;;;;5.79;81.25;94029.81;1756672;81;20967;-46
2023/01/06 01:12:08;;;;;;;8.63;5.95;;;;;;;5.88;80.42;94035.39;1765348;80;21072;-48
2023/01/06 01:14:51;;;;;;;16.97;8.20;;;;;;;5.96;80.16;94039.45;1766769;80;21099;-47
2023/01/06 01:17:30;;;;;;;11.90;6.65;;;;;;;6.10;78.93;94038.43;1744626;81;21265;-46
2023/01/06 01:19:58;;;;;;;18.75;8.85;;;;;;;6.20;78.54;94041.45;1744570;81;21489;-47
2023/01/06 01:22:29;;;;;;;12.80;6.83;;;;;;;6.26;77.64;94039.70;1743254;81;21037;-47
2023/01/06 01:24:55;;;;;;;12.63;9.10;;;;;;;6.35;77.30;94050.73;1747947;81;21132;-46
2023/01/06 01:27:24;;;;;;;15.45;7.80;;;;;;;6.40;76.76;94037.12;1717990;81;21130;-46
2023/01/06 01:29:52;;;;;;;8.10;5.20;;;;;;;6.41;76.65;94041.39;1740101;82;21162;-46
2023/01/06 01:32:19;;;;;;;8.48;6.08;;;;;;;6.40;76.47;94035.77;1738209;81;21153;-47
2023/01/06 01:34:47;;;;;;;26.07;14.83;;;;;;;6.47;76.09;94034.17;1736402;81;21132;-46
2023/01/06 01:37:14;;;;;;;15.15;10.70;;;;;;;6.53;75.57;94040.02;1745907;81;21033;-47
2023/01/06 01:39:41;;;;;;;6.35;5.60;;;;;;;6.58;75.43;94046.91;1716050;81;21105;-47
2023/01/06 01:42:17;;;;;;;24.27;21.97;;;;;;;6.56;75.33;94036.41;1700757;81;21562;-47
2023/01/06 01:44:58;;;;;;;9.55;8.35;;;;;;;6.58;75.27;94040.08;1738117;82;21595;-46
2023/01/06 01:47:46;;;;;;;6.58;5.87;;;;;;;6.62;74.85;94036.62;1674518;84;21053;-46
2023/01/06 01:50:29;;;;;;;6.28;5.55;;;;;;;6.62;74.96;94045.60;1676636;82;21184;-47
2023/01/06 01:53:05;;;;;;;3.97;3.67;;;;;;;6.58;75.23;94051.00;1692782;83;21151;-46
2023/01/06 01:55:32;;;;;;;6.83;5.83;;;;;;;6.56;74.82;94057.52;1647973;86;21175;-45
2023/01/06 01:58:09;;;;;;;6.30;5.70;;;;;;;6.53;74.82;94061.13;1649627;86;21148;-47
2023/01/06 02:00:36;;;;;;;9.00;7.15;;;;;;;6.53;75.26;94059.14;1536395;92;21151;-46
2023/01/06 02:03:04;;;;;;;22.37;17.02;;;;;;;6.50;74.34;94070.20;1566306;91;21127;-47
2023/01/06 02:05:31;;;;;;;20.02;14.55;;;;;;;6.53;72.16;94069.33;1557600;91;21152;-47
2023/01/06 02:08:01;;;;;;;20.20;16.10;;;;;;;6.59;72.27;94072.44;1560875;91;21907;-46
2023/01/06 02:10:28;;;;;;;28.12;25.10;;;;;;;6.57;72.08;94075.44;1508833;93;21132;-47
2023/01/06 02:12:57;;;;;;;21.85;16.45;;;;;;;6.57;71.06;94073.48;1548935;91;21140;-48
2023/01/06 02:15:31;;;;;;;25.82;16.70;;;;;;;6.64;71.23;94072.47;1564782;91;21077;-46
2023/01/06 02:18:21;;;;;;;17.92;10.40;;;;;;;6.69;70.87;94077.41;1564573;90;21030;-47
2023/01/06 02:21:13;;;;;;;13.70;9.10;;;;;;;6.72;70.00;94079.27;1562417;91;21581;-46
2023/01/06 02:24:25;;;;;;;20.00;11.57;;;;;;;6.71;69.98;94094.13;1545138;89;21076;-47
2023/01/06 02:27:17;;;;;;;19.05;8.60;;;;;;;6.72;69.57;94103.86;1597348;89;21073;-45
2023/01/06 02:30:01;;;;;;;4.55;4.15;;;;;;;6.75;67.80;94106.49;1602201;89;21073;-46
2023/01/06 02:32:53;;;;;;;11.80;6.37;;;;;;;6.78;68.05;94104.25;1565127;91;21042;-47
2023/01/06 02:35:41;;;;;;;13.65;11.48;;;;;;;6.75;67.27;94123.48;1563823;91;21869;-47
2023/01/06 02:38:29;;;;;;;8.88;5.28;;;;;;;6.69;67.71;94127.97;1611459;86;21032;-45
2023/01/06 02:41:07;;;;;;;12.60;8.45;;;;;;;6.66;67.80;94129.59;1629247;87;21085;-62
2023/01/06 02:43:46;;;;;;;31.42;20.92;;;;;;;6.62;67.36;94121.34;1609216;88;21103;-48
2023/01/06 02:46:36;;;;;;;15.40;8.30;;;;;;;6.58;67.91;94124.20;1578139;88;21097;-47
2023/01/06 02:49:37;;;;;;;22.70;13.28;;;;;;;6.55;68.01;94125.05;1567526;90;21342;-47
2023/01/06 02:52:37;;;;;;;6.47;5.92;;;;;;;6.51;67.97;94118.92;1565907;90;21123;-47
2023/01/06 02:55:16;;;;;;;9.95;8.65;;;;;;;6.54;67.99;94117.30;1570196;90;21084;-48
2023/01/06 02:57:49;;;;;;;9.55;7.40;;;;;;;6.56;67.92;94127.94;1575643;90;21658;-47
2023/01/06 03:00:21;;;;;;;14.03;12.07;;;;;;;6.56;67.39;94140.84;1434296;98;21219;-47
2023/01/06 03:02:53;;;;;;;8.00;7.22;;;;;;;6.55;67.06;94140.07;1435101;96;21317;-46
2023/01/06 03:05:20;;;;;;;11.05;10.03;;;;;;;6.58;66.76;94148.78;1407751;99;21295;-48
2023/01/06 03:07:48;;;;;;;13.43;12.23;;;;;;;6.62;66.31;94156.86;1416088;98;21671;-48
2023/01/06 03:10:17;;;;;;;17.82;15.65;;;;;;;6.66;66.31;94152.08;1449144;97;21144;-46
2023/01/06 03:13:06;;;;;;;12.25;9.90;;;;;;;6.70;66.04;94147.27;1398052;100;21198;-47
2023/01/06 03:15:35;;;;;;;13.15;11.12;;;;;;;6.75;65.97;94143.98;1383858;100;21371;-47
2023/01/06 03:18:02;;;;;;;16.52;12.23;;;;;;;6.73;65.15;94148.50;1392090;100;21125;-47
2023/01/06 03:20:29;;;;;;;18.62;10.75;;;;;;;6.72;65.00;94154.42;1421919;98;21579;-46
2023/01/06 03:22:55;;;;;;;16.40;11.22;;;;;;;6.68;64.74;94154.52;1414954;99;21087;-47
2023/01/06 03:25:23;;;;;;;19.62;8.88;;;;;;;6.67;65.03;94163.17;1433272;98;21702;-46
2023/01/06 03:27:50;;;;;;;11.50;8.03;;;;;;;6.66;65.02;94173.33;1457251;98;22117;-46
2023/01/06 03:30:19;;;;;;;6.30;5.72;;;;;;;6.60;65.19;94175.66;1459701;96;21069;-47
2023/01/06 03:33:11;;;;;;;9.93;7.92;;;;;;;6.53;64.06;94178.61;1441331;98;21173;-48
2023/01/06 03:35:53;;;;;;;7.50;5.58;;;;;;;6.47;63.77;94167.45;1400098;100;21214;-47
2023/01/06 03:38:32;;;;;;;7.65;6.85;;;;;;;6.41;64.46;94173.88;1412883;100;21155;-46
2023/01/06 03:41:03;;;;;;;5.28;4.35;;;;;;;6.32;65.14;94179.98;1419565;100;21420;-47
2023/01/06 03:43:36;;;;;;;4.83;4.42;;;;;;;6.31;65.48;94182.55;1422872;99;21186;-47
2023/01/06 03:46:26;;;;;;;4.25;3.95;;;;;;;6.32;65.57;94196.98;1421640;100;21169;-48
2023/01/06 03:48:59;;;;;;;3.50;3.20;;;;;;;6.32;65.57;94202.45;1421024;99;21536;-46
2023/01/06 03:51:41;;;;;;;3.20;3.00;;;;;;;6.28;65.88;94195.70;1429459;99;21133;-47
2023/01/06 03:54:36;;;;;;;6.67;3.50;;;;;;;6.23;65.94;94210.48;1425598;99;22390;-47
2023/01/06 03:57:07;;;;;;;3.00;2.80;;;;;;;6.16;65.82;94214.17;1440914;97;21026;-47
2023/01/06 03:59:41;;;;;;;3.08;2.98;;;;;;;6.08;66.08;94213.42;1464405;96;21179;-46
2023/01/06 04:02:08;;;;;;;;;;;;;;;6.02;66.12;94208.34;1485618;92;21365;-47
2023/01/06 04:04:36;;;;;;;3.00;2.90;;;;;;;6.00;66.30;94208.00;1545504;92;20233;-47
2023/01/06 04:07:04;;;;;;;2.98;2.87;;;;;;;5.96;65.84;94225.08;1542890;92;21246;-48
2023/01/06 04:09:33;;;;;;;2.80;2.70;;;;;;;5.93;65.85;94224.58;1542086;92;21691;-47
2023/01/06 04:14:45;;;;;;;3.92;3.72;;;;;;;5.93;66.08;94234.13;1545659;92;21056;-46
2023/01/06 04:17:12;;;;;;;4.62;4.33;;;;;;;5.95;66.13;94239.31;1543681;92;21084;-46
2023/01/06 04:19:39;;;;;;;6.10;5.53;;;;;;;6.05;66.22;94241.59;1544537;92;21289;-46
2023/01/06 04:22:07;;;;;;;5.10;4.53;;;;;;;6.14;66.26;94249.95;1543828;92;21013;-47
2023/01/06 04:24:34;;;;;;;13.35;9.00;;;;;;;6.20;66.32;94259.92;1529358;92;21590;-47
2023/01/06 04:27:02;;;;;;;5.62;4.75;;;;;;;6.21;65.45;94257.95;1537681;91;21058;-45
2023/01/06 04:29:29;;;;;;;4.30;4.00;;;;;;;6.22;65.57;94267.67;1536057;91;21618;-46
2023/01/06 04:31:56;;;;;;;3.72;3.52;;;;;;;6.23;65.97;94264.52;1544606;89;21188;-47
2023/01/06 04:34:23;;;;;;;3.50;3.30;;;;;;;6.22;66.19;94281.33;1563820;89;21453;-45
2023/01/06 04:36:51;;;;;;;3.30;3.10;;;;;;;6.15;67.22;94281.52;1557736;90;21041;-46
2023/01/06 04:39:18;;;;;;;3.35;3.15;;;;;;;6.04;68.29;94289.21;1578997;88;21049;-46
2023/01/06 04:41:45;;;;;;;4.37;4.08;;;;;;;5.91;69.31;94297.91;1588994;89;21221;-45
2023/01/06 04:44:11;;;;;;;4.10;3.40;;;;;;;5.74;69.82;94299.87;1583028;87;21513;-46
2023/01/06 04:46:38;;;;;;;5.25;4.08;;;;;;;5.64;70.15;94312.41;1602123;87;21620;-45
2023/01/06 04:49:05;;;;;;;3.72;3.42;;;;;;;5.62;70.40;94316.16;1602733;88;21065;-45
2023/01/06 04:51:32;;;;;;;3.30;3.10;;;;;;;5.63;70.50;94317.69;1588791;89;21048;-45
2023/01/06 04:53:59;;;;;;;3.10;2.90;;;;;;;5.58;70.49;94314.87;1578421;89;21260;-47
2023/01/06 04:56:26;;;;;;;6.15;3.90;;;;;;;5.58;70.55;94329.13;1668377;84;21968;-45
2023/01/06 04:58:56;;;;;;;10.48;5.40;;;;;;;5.58;70.26;94339.42;1695675;80;21010;-45
2023/01/06 05:01:24;;;;;;;4.03;3.40;;;;;;;5.57;70.05;94341.23;1770296;80;21156;-46
2023/01/06 05:03:51;;;;;;;3.22;3.02;;;;;;;5.52;69.85;94352.05;1680740;83;21533;-46
2023/01/06 05:06:17;;;;;;;3.37;3.17;;;;;;;5.42;69.78;94365.92;1768084;80;20997;-45
2023/01/06 05:08:46;;;;;;;3.40;3.20;;;;;;;5.24;70.68;94380.53;1764369;80;22069;-46
2023/01/06 05:11:17;;;;;;;3.70;3.40;;;;;;;5.08;71.49;94384.56;1761468;80;21156;-44
2023/01/06 05:13:44;;;;;;;3.50;3.30;;;;;;;4.99;72.40;94394.49;1656502;86;21161;-46
2023/01/06 05:16:15;;;;;;;7.53;5.65;;;;;;;4.89;72.98;94396.23;1699897;83;21007;-46
2023/01/06 05:18:42;;;;;;;9.88;6.30;;;;;;;4.82;73.62;94399.09;1696936;82;21066;-46
2023/01/06 05:21:08;;;;;;;9.35;6.40;;;;;;;4.85;74.45;94407.81;1707124;81;21251;-45
2023/01/06 05:23:36;;;;;;;13.85;9.05;;;;;;;4.90;74.36;94412.77;1689980;83;21612;-45
2023/01/06 05:26:05;;;;;;;15.70;10.13;;;;;;;4.85;74.42;94406.45;1694343;83;21110;-46
2023/01/06 05:28:33;;;;;;;40.95;22.05;;;;;;;4.86;74.90;94410.70;1700420;83;21030;-46
2023/01/06 05:31:01;;;;;;;40.05;24.12;;;;;;;4.90;75.22;94414.13;1690561;83;21039;-45
2023/01/06 05:33:31;;;;;;;70.45;35.55;;;;;;;4.89;75.44;94413.95;1719565;83;20974;-45
2023/01/06 05:36:06;;;;;;;45.43;26.95;;;;;;;4.89;75.96;94412.59;1707366;83;21000;-45
2023/01/06 05:38:33;;;;;;;42.00;27.10;;;;;;;4.93;76.03;94413.28;1714283;83;21174;-46
2023/01/06 05:40:59;;;;;;;22.50;15.32;;;;;;;4.96;76.08;94424.70;1722634;81;21137;-45
2023/01/06 05:43:26;;;;;;;16.77;12.60;;;;;;;4.94;75.99;94428.45;1701980;83;21059;-46
2023/01/06 05:45:54;;;;;;;36.05;18.92;;;;;;;4.88;76.15;94431.50;1686206;83;21176;-45
2023/01/06 05:48:26;;;;;;;29.02;17.65;;;;;;;4.85;76.68;94443.81;1714598;82;21057;-46
2023/01/06 05:51:03;;;;;;;16.32;11.60;;;;;;;4.87;77.11;94444.95;1611666;87;21102;-46
2023/01/06 05:53:33;;;;;;;41.48;22.62;;;;;;;4.92;77.01;94453.21;1556834;90;21197;-47
2023/01/06 05:56:02;;;;;;;16.90;10.25;;;;;;;4.96;76.01;94447.88;1537002;91;21155;-46
2023/01/06 05:58:31;;;;;;;12.23;8.08;;;;;;;4.81;73.22;94464.31;1540147;90;21325;-47
2023/01/06 06:01:01;;;;;;;4.67;4.28;;;;;;;4.69;72.00;94460.84;1547723;91;21249;-48
2023/01/06 06:03:29;;;;;;;8.83;6.72;;;;;;;4.64;71.91;94465.39;1537868;90;21550;-49
2023/01/06 06:06:02;;;;;;;7.17;5.37;;;;;;;4.55;72.27;94473.92;1543848;90;21048;-46
2023/01/06 06:08:29;;;;;;;13.08;7.50;;;;;;;4.54;72.40;94466.94;1561494;89;21076;-49
2023/01/06 06:11:06;;;;;;;8.98;6.45;;;;;;;4.55;72.52;94466.53;1544633;89;22022;-47
2023/01/06 06:13:33;;;;;;;12.58;5.37;;;;;;;4.58;72.49;94473.88;1557729;89;21641;-47
2023/01/06 06:16:09;;;;;;;8.95;7.03;;;;;;;4.61;72.20;94483.17;1550114;90;21032;-47
2023/01/06 06:18:43;;;;;;;24.80;15.65;;;;;;;4.60;72.17;94487.84;1566181;89;21064;-48
2023/01/06 06:21:12;;;;;;;36.53;18.07;;;;;;;4.58;72.80;94493.55;1571345;87;21660;-49
2023/01/06 06:23:40;;;;;;;16.07;9.58;;;;;;;4.58;72.89;94491.58;1589064;89;22396;-46
2023/01/06 06:26:08;;;;;;;7.65;4.92;;;;;;;4.61;72.12;94495.44;1570863;88;21219;-52
2023/01/06 06:28:36;;;;;;;5.25;4.75;;;;;;;4.64;71.60;94505.50;1599836;87;22131;-49
2023/01/06 06:31:07;;;;;;;34.45;19.65;;;;;;;4.68;71.37;94508.92;1596758;87;21540;-49
2023/01/06 06:33:35;;;;;;;69.07;35.68;;;;;;;4.73;71.42;94516.04;1610730;88;21304;-51
2023/01/06 06:36:04;;;;;;;49.03;28.10;;;;;;;4.76;71.81;94519.29;1600069;88;21281;-49
2023/01/06 06:38:31;;;;;;;57.05;31.70;;;;;;;4.83;70.57;94521.13;1589938;87;21546;-48
2023/01/06 06:40:58;;;;;;;39.48;22.77;;;;;;;4.83;70.51;94524.61;1586819;88;21096;-50
2023/01/06 06:43:26;;;;;;;26.25;14.05;;;;;;;4.88;69.10;94528.23;1589568;87;21268;-49
2023/01/06 06:45:54;;;;;;;25.43;16.57;;;;;;;4.90;67.90;94536.77;1568165;89;21139;-49
2023/01/06 06:48:22;;;;;;;11.50;7.80;;;;;;;4.96;68.02;94541.91;1601277;86;21594;-47
2023/01/06 06:51:00;;;;;;;24.25;17.02;;;;;;;5.00;67.23;94549.42;1623615;86;21092;-47
2023/01/06 06:53:27;;;;;;;12.30;11.03;;;;;;;4.98;66.19;94559.98;1654854;83;21695;-47
2023/01/06 06:55:55;;;;;;;9.65;8.75;;;;;;;5.01;67.06;94569.29;1709514;83;21127;-46
2023/01/06 06:58:23;;;;;;;6.30;5.70;;;;;;;5.06;66.31;94577.77;1701178;83;21604;-46
2023/01/06 07:00:50;;;;;;;10.82;9.73;;;;;;;5.05;64.88;94581.68;1704518;82;21163;-49
2023/01/06 07:03:19;;;;;;;8.58;7.80;;;;;;;5.02;64.43;94584.45;1697982;82;21201;-47
2023/01/06 07:05:47;;;;;;;6.47;5.25;;;;;;;5.05;63.42;94591.80;1706836;82;21565;-48
2023/01/06 07:08:14;;;;;;;10.03;7.47;;;;;;;5.14;63.58;94592.80;1682951;83;21510;-48
2023/01/06 07:10:41;;;;;;;8.10;7.05;;;;;;;5.15;63.94;94588.89;1716122;82;20996;-52
2023/01/06 07:13:08;;;;;;;8.43;7.60;;;;;;;5.13;64.03;94589.14;1678888;83;21271;-49
2023/01/06 07:15:35;;;;;;;16.40;11.50;;;;;;;5.11;63.98;94596.37;1712582;82;21072;-50
2023/01/06 07:18:06;;;;;;;24.20;16.15;;;;;;;5.09;64.62;94591.92;1696852;82;21099;-50
2023/01/06 07:20:35;;;;;;;18.95;13.28;;;;;;;5.06;65.12;94600.16;1684698;81;21076;-49
2023/01/06 07:23:03;;;;;;;8.88;7.72;;;;;;;5.05;65.05;94600.77;1688590;82;21611;-49
2023/01/06 07:25:30;;;;;;;6.12;5.53;;;;;;;5.12;64.07;94603.36;1685112;83;21850;-50
2023/01/06 07:27:59;;;;;;;11.75;9.55;;;;;;;5.22;63.21;94594.81;1680539;83;21038;-50
2023/01/06 07:30:27;;;;;;;9.05;7.40;;;;;;;5.25;61.62;94599.61;1657719;83;21271;-50
2023/01/06 07:32:54;;;;;;;12.88;10.98;;;;;;;5.31;59.96;94591.72;1719984;81;21110;-50
2023/01/06 07:35:20;;;;;;;12.82;10.50;;;;;;;5.37;60.16;94598.23;1711225;82;21119;-49
2023/01/06 07:37:47;;;;;;;25.95;18.42;;;;;;;5.43;60.15;94606.88;1773010;78;21229;-49
2023/01/06 07:40:16;;;;;;;12.35;9.95;;;;;;;5.52;60.44;94606.34;1791142;78;21568;-50
2023/01/06 07:42:43;;;;;;;10.13;8.75;;;;;;;5.56;59.68;94613.27;1779341;79;21545;-48
2023/01/06 07:45:11;;;;;;;8.70;7.45;;;;;;;5.64;58.80;94611.19;1795741;78;21002;-51
2023/01/06 07:47:38;;;;;;;10.48;8.58;;;;;;;5.64;58.36;94622.10;1777032;79;22322;-50
2023/01/06 07:50:06;;;;;;;9.55;8.00;;;;;;;5.63;58.65;94630.11;1739134;81;21530;-49
2023/01/06 07:52:34;;;;;;;12.80;10.80;;;;;;;5.68;58.65;94630.98;1710688;82;21056;-48
2023/01/06 07:55:01;;;;;;;22.65;15.88;;;;;;;5.71;59.02;94632.88;1703511;82;21046;-51
2023/01/06 07:57:28;;;;;;;18.92;12.43;;;;;;;5.68;59.25;94640.53;1722359;82;21163;-51
2023/01/06 07:59:55;;;;;;;7.72;6.75;;;;;;;5.58;59.48;94639.55;1710537;81;21083;-49
2023/01/06 08:02:22;;;;;;;7.65;6.60;;;;;;;5.54;58.25;94638.06;1729136;82;21297;-50
2023/01/06 08:04:50;;;;;;;19.20;13.35;;;;;;;5.48;58.39;94637.01;1700195;82;21690;-49
2023/01/06 08:07:16;;;;;;;13.75;11.08;;;;;;;5.43;58.97;94637.50;1706231;81;21018;-48
2023/01/06 08:09:43;;;;;;;16.12;13.20;;;;;;;5.37;59.08;94637.78;1711433;82;21150;-50
2023/01/06 08:12:11;;;;;;;14.18;9.95;;;;;;;5.34;59.50;94646.80;1709582;82;21542;-50
2023/01/06 08:14:39;;;;;;;13.80;9.98;;;;;;;5.31;59.35;94646.27;1704648;82;21163;-51
2023/01/06 08:17:08;;;;;;;8.85;7.78;;;;;;;5.25;59.55;94655.52;1682820;82;22161;-50
2023/01/06 08:19:37;;;;;;;9.15;7.45;;;;;;;5.16;59.22;94659.95;1728178;81;21101;-54
2023/01/06 08:22:05;;;;;;;9.10;7.50;;;;;;;5.11;59.18;94664.52;1744253;80;21117;-52
2023/01/06 08:24:34;;;;;;;18.17;12.28;;;;;;;5.14;59.48;94656.88;1713687;81;21058;-50
2023/01/06 08:27:06;;;;;;;12.58;9.88;;;;;;;5.17;60.10;94665.59;1717732;81;21167;-51
2023/01/06 08:29:33;;;;;;;12.78;10.50;;;;;;;5.22;60.58;94678.77;1687880;82;21065;-50
2023/01/06 08:31:59;;;;;;;14.10;11.55;;;;;;;5.20;60.36;94677.05;1706565;81;21066;-50
2023/01/06 08:34:26;;;;;;;11.35;9.18;;;;;;;5.17;60.38;94680.58;1707000;82;21084;-53
2023/01/06 08:36:53;;;;;;;12.18;9.13;;;;;;;5.26;60.25;94685.69;1715511;82;21049;-51
2023/01/06 08:39:20;;;;;;;13.95;9.60;;;;;;;5.36;60.09;94689.42;1668157;83;21167;-51
2023/01/06 08:41:50;;;;;;;13.35;10.13;;;;;;;5.39;59.46;94687.25;1652739;85;21544;-52
2023/01/06 08:44:18;;;;;;;17.70;13.95;;;;;;;5.37;59.26;94684.93;1741943;81;21209;-54
2023/01/06 08:46:45;;;;;;;19.20;14.75;;;;;;;5.37;59.36;94678.11;1726556;81;21124;-51
2023/01/06 08:49:12;;;;;;;12.93;10.48;;;;;;;5.44;59.43;94690.86;1725069;81;21704;-52
2023/01/06 08:51:50;;;;;;;12.82;9.93;;;;;;;5.48;59.25;94692.94;1677162;83;21212;-51
2023/01/06 08:54:21;;;;;;;19.05;17.10;;;;;;;5.49;58.94;94697.20;1733219;81;21072;-51
2023/01/06 08:56:49;;;;;;;13.50;10.03;;;;;;;5.47;58.55;94690.81;1723474;80;21148;-52
2023/01/06 08:59:16;;;;;;;13.38;9.90;;;;;;;5.50;59.15;94697.38;1732374;81;21226;-56
2023/01/06 09:01:54;;;;;;;9.70;8.15;;;;;;;5.52;58.90;94697.73;1734667;81;21029;-50
2023/01/06 09:04:23;;;;;;;17.30;10.88;;;;;;;5.53;58.85;94707.45;1750329;80;21243;-51
2023/01/06 09:06:50;;;;;;;14.63;10.53;;;;;;;5.51;58.89;94703.80;1774013;79;21015;-51
2023/01/06 09:09:18;;;;;;;15.28;10.32;;;;;;;5.55;58.66;94706.44;1775177;79;21006;-51
2023/01/06 09:11:46;;;;;;;13.20;8.83;;;;;;;5.64;58.64;94705.33;1777221;79;21010;-54
2023/01/06 09:14:15;;;;;;;11.90;8.43;;;;;;;5.93;59.00;94713.98;1787619;79;21087;-51
2023/01/06 09:16:48;;;;;;;9.63;8.25;;;;;;;6.23;58.27;94706.20;1772452;79;22014;-52
2023/01/06 09:19:23;;;;;;;8.65;7.10;;;;;;;6.36;58.46;94705.75;1790331;78;22155;-50
2023/01/06 09:21:50;;;;;;;10.13;8.25;;;;;;;6.38;57.91;94700.64;1785821;80;21500;-50
2023/01/06 09:24:22;;;;;;;12.53;10.15;;;;;;;6.32;58.42;94700.97;1766446;79;21390;-51
2023/01/06 09:26:49;;;;;;;14.00;10.68;;;;;;;6.34;59.06;94697.97;1783431;79;20989;-50
2023/01/06 09:29:22;;;;;;;20.62;14.47;;;;;;;6.40;58.87;94704.50;1792964;79;21389;-49
2023/01/06 09:31:50;;;;;;;20.45;14.25;;;;;;;6.50;59.05;94700.77;1712087;81;21531;-52
2023/01/06 09:34:17;;;;;;;23.60;16.20;;;;;;;6.81;58.09;94706.74;1716534;82;21053;-52
2023/01/06 09:36:45;;;;;;;13.05;8.00;;;;;;;7.01;56.17;94706.09;1722624;80;21499;-50
2023/01/06 09:39:12;;;;;;;13.45;11.60;;;;;;;7.06;55.70;94706.98;1737678;80;21076;-51
2023/01/06 09:42:02;;;;;;;7.62;6.30;;;;;;;7.13;55.08;94714.44;1748548;79;22358;-51
2023/01/06 09:44:37;;;;;;;13.13;9.55;;;;;;;7.19;54.02;94710.73;1757109;79;21643;-51
2023/01/06 09:47:06;;;;;;;15.20;12.75;;;;;;;7.07;54.32;94709.89;1757986;79;20996;-50
2023/01/06 09:49:45;;;;;;;16.67;11.10;;;;;;;6.91;55.51;94712.59;1748894;80;21659;-54
2023/01/06 09:52:27;;;;;;;17.17;12.55;;;;;;;6.75;55.55;94714.70;1754402;80;21390;-49
2023/01/06 09:55:07;;;;;;;12.90;8.13;;;;;;;6.60;56.19;94709.94;1685397;83;21157;-50
2023/01/06 09:57:45;;;;;;;14.98;9.75;;;;;;;6.50;56.00;94704.11;1618116;85;21070;-49
2023/01/06 10:00:41;;;;;;;24.00;16.23;;;;;;;6.41;55.93;94713.45;1625250;85;21023;-52
2023/01/06 10:03:15;;;;;;;34.85;27.32;;;;;;;6.30;56.46;94708.81;1630306;86;21057;-51
2023/01/06 10:06:12;;;;;;;17.62;13.08;;;;;;;6.31;56.62;94711.11;1597035;86;21172;-49
2023/01/06 10:09:09;;;;;;;21.65;15.70;;;;;;;6.42;56.23;94698.59;1583386;87;21191;-51
2023/01/06 10:12:21;;;;;;;16.77;12.47;;;;;;;6.52;55.91;94711.28;1576516;88;21095;-51
2023/01/06 10:15:21;;;;;;;18.07;10.88;;;;;;;6.58;55.90;94712.32;1603200;88;21487;-51
2023/01/06 10:18:10;;;;;;;7.62;6.17;;;;;;;6.70;55.87;94718.52;1585948;89;21535;-51
2023/01/06 10:21:14;;;;;;;8.60;6.90;;;;;;;6.70;54.50;94710.32;1589084;88;21161;-51
2023/01/06 10:23:53;;;;;;;7.30;5.95;;;;;;;6.67;54.03;94717.39;1608844;88;21335;-57
2023/01/06 10:26:31;;;;;;;13.75;7.60;;;;;;;6.60;54.71;94714.81;1538136;91;21122;-54
2023/01/06 10:29:12;;;;;;;21.17;11.97;;;;;;;6.56;54.63;94707.88;1535071;91;21218;-49
2023/01/06 10:31:39;;;;;;;10.13;5.22;;;;;;;6.58;54.57;94705.48;1540473;90;21233;-50
2023/01/06 10:34:08;;;;;;;8.95;7.33;;;;;;;6.65;54.17;94712.16;1543578;91;21563;-51
2023/01/06 10:36:39;;;;;;;24.80;14.30;;;;;;;6.74;54.34;94695.97;1563897;90;21317;-49
2023/01/06 10:39:20;;;;;;;17.37;12.53;;;;;;;6.86;53.93;94700.80;1506638;94;21036;-51
2023/01/06 10:44:53;;;;;;;5.92;4.20;;;;;;;7.11;54.12;94701.17;1461142;96;21682;-52
2023/01/06 10:47:30;;;;;;;9.95;5.42;;;;;;;7.24;53.27;94703.41;1479513;93;21344;-50
2023/01/06 10:49:58;;;;;;;6.20;5.60;;;;;;;7.27;53.04;94698.45;1468008;95;21402;-54
2023/01/06 10:52:25;;;;;;;5.90;5.40;;;;;;;7.69;52.47;94696.03;1490095;92;21025;-53
2023/01/06 10:54:57;;;;;;;8.53;5.90;;;;;;;8.09;50.96;94695.20;1534961;92;21100;-52
2023/01/06 10:57:28;;;;;;;15.05;11.95;;;;;;;8.07;50.62;94692.12;1534658;90;21060;-51
2023/01/06 11:00:23;;;;;;;20.88;11.57;;;;;;;7.78;51.30;94681.73;1544271;91;21165;-51
2023/01/06 11:02:56;;;;;;;16.48;12.43;;;;;;;7.68;51.98;94689.64;1603924;86;21191;-49
2023/01/06 11:05:26;;;;;;;6.30;5.50;;;;;;;7.82;51.38;94683.19;1636560;86;21108;-50
2023/01/06 11:07:57;;;;;;;26.42;8.70;;;;;;;7.95;50.61;94684.03;1639150;85;21072;-52
2023/01/06 11:10:29;;;;;;;19.85;14.25;;;;;;;8.49;50.84;94674.53;1623520;87;21153;-51
2023/01/06 11:12:58;;;;;;;;;;;;;;;8.90;48.95;94679.39;1620825;87;21078;-51
2023/01/06 11:15:38;;;;;;;17.02;12.90;;;;;;;8.95;47.67;94674.72;1622479;87;21352;-49
2023/01/06 11:18:17;;;;;;;6.62;4.22;;;;;;;8.87;47.80;94687.13;1605623;86;21582;-51
2023/01/06 11:20:46;;;;;;;4.67;3.22;;;;;;;8.71;46.83;94685.05;1605181;87;21215;-51
2023/01/06 11:23:20;;;;;;;10.05;6.03;;;;;;;8.40;46.91;94682.02;1584657;88;21065;-51
2023/01/06 11:26:03;;;;;;;28.20;15.70;;;;;;;8.25;48.16;94687.73;1575914;89;21155;-50
2023/01/06 11:28:31;;;;;;;43.35;21.33;;;;;;;8.15;48.60;94684.66;1575945;88;21250;-49
2023/01/06 11:31:02;;;;;;;32.45;17.20;;;;;;;8.13;48.04;94677.48;1637854;84;21053;-49
2023/01/06 11:33:31;;;;;;;12.93;8.05;;;;;;;8.10;48.08;94673.45;1662818;85;21049;-51
2023/01/06 11:36:02;;;;;;;10.70;7.30;;;;;;;8.43;47.53;94674.30;1688937;81;21113;-48
2023/01/06 11:38:28;;;;;;;15.85;10.30;;;;;;;9.14;45.81;94666.88;1707250;82;21095;-49
2023/01/06 11:40:55;;;;;;;12.45;6.85;;;;;;;9.81;44.13;94663.48;1708955;81;21271;-50
2023/01/06 11:43:30;;;;;;;7.20;6.28;;;;;;;9.89;42.91;94668.13;1734668;81;21092;-50
2023/01/06 11:46:01;;;;;;;7.50;6.25;;;;;;;9.91;43.08;94674.73;1751212;78;21001;-49
2023/01/06 11:48:32;;;;;;;24.12;14.25;;;;;;;10.74;42.24;94676.47;1757329;78;21141;-50
2023/01/06 11:51:02;;;;;;;7.42;5.83;;;;;;;11.61;41.09;94683.33;1739363;81;21467;-50
2023/01/06 11:53:29;;;;;;;17.17;12.70;;;;;;;11.67;40.65;94682.88;1750047;81;21387;-51
2023/01/06 11:56:06;;;;;;;70.75;12.37;;;;;;;11.20;40.93;94689.87;1739217;81;21041;-50
2023/01/06 11:59:00;;;;;;;20.45;15.50;;;;;;;11.27;42.13;94690.95;1759957;78;21175;-49
2023/01/06 12:01:48;;;;;;;15.15;10.32;;;;;;;12.49;39.47;94697.54;1761383;78;21104;-50